createdAt,value
2022-12-14T00:01:37.998Z,-3.03
2022-12-14T00:04:05.643Z,-3.03
2022-12-14T00:06:34.637Z,-3.05
2022-12-14T00:09:04.795Z,-3.08
2022-12-14T00:11:34.005Z,-3.11
2022-12-14T00:14:03.356Z,-3.11
2022-12-14T00:16:33.795Z,-3.15
2022-12-14T00:19:02.179Z,-3.16
2022-12-14T00:21:30.076Z,-3.15
2022-12-14T00:23:59.203Z,-3.17
2022-12-14T00:26:30.619Z,-3.17
2022-12-14T00:29:00.766Z,-3.12
2022-12-14T00:31:29.898Z,-3.11
2022-12-14T00:33:58.089Z,-3.09
2022-12-14T00:36:25.848Z,-3.13
2022-12-14T00:38:53.554Z,-3.13
2022-12-14T00:41:21.289Z,-3.15
2022-12-14T00:43:49.275Z,-3.15
2022-12-14T00:46:18.217Z,-3.12
2022-12-14T00:48:46.564Z,-3.12
2022-12-14T00:51:14.503Z,-3.14
2022-12-14T00:53:44.016Z,-3.14
2022-12-14T00:56:11.971Z,-3.17
2022-12-14T00:58:39.865Z,-3.20
2022-12-14T01:01:12.996Z,-3.17
2022-12-14T01:03:42.400Z,-3.19
2022-12-14T01:06:17.464Z,-3.20
2022-12-14T01:08:45.351Z,-3.25
2022-12-14T01:11:14.143Z,-3.24
2022-12-14T01:13:42.401Z,-3.25
2022-12-14T01:16:14.401Z,-3.25
2022-12-14T01:18:43.540Z,-3.26
2022-12-14T01:21:18.998Z,-3.26
2022-12-14T01:23:48.574Z,-3.21
2022-12-14T01:26:17.673Z,-3.21
2022-12-14T01:28:47.613Z,-3.23
2022-12-14T01:31:19.342Z,-3.24
2022-12-14T01:33:47.993Z,-3.24
2022-12-14T01:36:26.076Z,-3.19
2022-12-14T01:38:57.806Z,-3.19
2022-12-14T01:41:30.636Z,-3.26
2022-12-14T01:44:05.998Z,-3.27
2022-12-14T01:47:07.385Z,-3.25
2022-12-14T01:49:43.264Z,-3.25
2022-12-14T01:52:25.466Z,-3.27
2022-12-14T01:55:03.318Z,-3.25
2022-12-14T01:57:36.509Z,-3.24
2022-12-14T02:00:08.483Z,-3.22
2022-12-14T02:02:41.479Z,-3.19
2022-12-14T02:05:10.853Z,-3.18
2022-12-14T02:07:40.803Z,-3.19
2022-12-14T02:10:09.848Z,-3.19
2022-12-14T02:12:51.518Z,-3.20
2022-12-14T02:15:19.732Z,-3.20
2022-12-14T02:17:48.473Z,-3.23
2022-12-14T02:20:18.382Z,-3.25
2022-12-14T02:23:04.423Z,-3.31
2022-12-14T02:26:11.898Z,-3.31
2022-12-14T02:29:22.943Z,-3.33
2022-12-14T02:32:26.798Z,-3.28
2022-12-14T02:35:13.916Z,-3.25
2022-12-14T02:38:10.279Z,-3.27
2022-12-14T02:40:46.813Z,-3.28
2022-12-14T02:43:39.746Z,-3.27
2022-12-14T02:46:50.217Z,-3.26
2022-12-14T02:49:42.750Z,-3.24
2022-12-14T02:52:42.037Z,-3.25
2022-12-14T02:55:30.057Z,-3.23
2022-12-14T02:58:08.993Z,-3.28
2022-12-14T03:00:38.275Z,-3.28
2022-12-14T03:03:06.760Z,-3.28
2022-12-14T03:05:35.847Z,-3.31
2022-12-14T03:08:16.193Z,-3.29
2022-12-14T03:11:02.527Z,-3.29
2022-12-14T03:13:51.013Z,-3.31
2022-12-14T03:16:29.438Z,-3.31
2022-12-14T03:19:19.205Z,-3.33
2022-12-14T03:22:00.710Z,-3.29
2022-12-14T03:24:39.335Z,-3.24
2022-12-14T03:27:23.972Z,-3.21
2022-12-14T03:30:05.737Z,-3.20
2022-12-14T03:32:37.626Z,-3.24
2022-12-14T03:35:13.398Z,-3.22
2022-12-14T03:37:53.085Z,-3.27
2022-12-14T03:40:23.648Z,-3.26
2022-12-14T03:43:11.267Z,-3.26
2022-12-14T03:45:50.533Z,-3.24
2022-12-14T03:48:47.581Z,-3.26
2022-12-14T03:51:32.817Z,-3.26
2022-12-14T03:54:24.193Z,-3.26
2022-12-14T03:57:22.743Z,-3.29
2022-12-14T03:59:55.655Z,-3.34
2022-12-14T04:02:33.976Z,-3.36
2022-12-14T04:05:12.154Z,-3.38
2022-12-14T04:07:54.461Z,-3.42
2022-12-14T04:10:48.581Z,-3.43
2022-12-14T04:13:40.367Z,-3.47
2022-12-14T04:16:33.433Z,-3.47
2022-12-14T04:19:06.535Z,-3.49
2022-12-14T04:21:47.962Z,-3.54
2022-12-14T04:24:39.188Z,-3.56
2022-12-14T04:27:24.031Z,-3.54
2022-12-14T04:29:57.803Z,-3.53
2022-12-14T04:32:46.141Z,-3.51
2022-12-14T04:35:40.065Z,-3.44
2022-12-14T04:38:12.929Z,-3.38
2022-12-14T04:40:48.827Z,-3.35
2022-12-14T04:43:23.787Z,-3.32
2022-12-14T04:46:11.400Z,-3.31
2022-12-14T04:48:57.095Z,-3.30
2022-12-14T04:51:53.118Z,-3.32
2022-12-14T04:54:40.518Z,-3.43
2022-12-14T04:57:47.087Z,-3.43
2022-12-14T05:00:15.881Z,-3.53
2022-12-14T05:03:17.818Z,-3.60
2022-12-14T05:05:59.109Z,-3.67
2022-12-14T05:08:52.939Z,-3.70
2022-12-14T05:11:54.920Z,-3.74
2022-12-14T05:14:33.947Z,-3.78
2022-12-14T05:17:08.797Z,-3.78
2022-12-14T05:19:34.745Z,-3.82
2022-12-14T05:22:07.900Z,-3.87
2022-12-14T05:24:35.942Z,-3.89
2022-12-14T05:27:03.763Z,-4.03
2022-12-14T05:29:31.685Z,-4.03
2022-12-14T05:32:00.005Z,-4.04
2022-12-14T05:34:27.945Z,-4.06
2022-12-14T05:36:55.254Z,-4.12
2022-12-14T05:39:22.940Z,-4.11
2022-12-14T05:41:50.554Z,-4.10
2022-12-14T05:44:18.040Z,-4.08
2022-12-14T05:46:46.051Z,-4.05
2022-12-14T05:49:13.759Z,-4.00
2022-12-14T05:51:41.552Z,-3.90
2022-12-14T05:54:09.230Z,-3.84
2022-12-14T05:56:37.023Z,-3.77
2022-12-14T05:59:04.593Z,-3.71
2022-12-14T06:01:32.426Z,-3.68
2022-12-14T06:04:00.160Z,-3.64
2022-12-14T06:06:27.877Z,-3.61
2022-12-14T06:08:55.810Z,-3.57
2022-12-14T06:11:23.821Z,-3.56
2022-12-14T06:13:51.806Z,-3.56
2022-12-14T06:16:26.142Z,-3.61
2022-12-14T06:18:57.710Z,-3.66
2022-12-14T06:21:32.717Z,-3.64
2022-12-14T06:24:01.144Z,-3.66
2022-12-14T06:26:30.962Z,-3.66
2022-12-14T06:28:59.559Z,-3.60
2022-12-14T06:31:32.499Z,-3.57
2022-12-14T06:34:02.521Z,-3.56
2022-12-14T06:36:34.631Z,-3.57
2022-12-14T06:39:06.993Z,-3.57
2022-12-14T06:41:35.121Z,-3.54
2022-12-14T06:44:06.540Z,-3.49
2022-12-14T06:46:35.467Z,-3.42
2022-12-14T06:49:07.847Z,-3.37
2022-12-14T06:51:40.033Z,-3.37
2022-12-14T06:54:10.416Z,-3.34
2022-12-14T06:56:40.172Z,-3.26
2022-12-14T06:59:08.803Z,-3.20
2022-12-14T07:01:38.100Z,-3.08
2022-12-14T07:04:07.622Z,-3.00
2022-12-14T07:06:39.974Z,-2.91
2022-12-14T07:09:11.732Z,-2.83
2022-12-14T07:11:39.903Z,-2.76
2022-12-14T07:14:07.788Z,-2.69
2022-12-14T07:16:36.475Z,-2.68
2022-12-14T07:19:04.497Z,-2.66
2022-12-14T07:21:33.345Z,-2.66
2022-12-14T07:24:01.288Z,-2.66
2022-12-14T07:26:30.134Z,-2.68
2022-12-14T07:29:01.043Z,-2.61
2022-12-14T07:31:29.326Z,-2.61
2022-12-14T07:33:59.781Z,-2.58
2022-12-14T07:36:30.126Z,-2.57
2022-12-14T07:38:58.288Z,-2.57
2022-12-14T07:41:31.259Z,-2.58
2022-12-14T07:44:00.900Z,-2.56
2022-12-14T07:46:31.503Z,-2.53
2022-12-14T07:49:00.728Z,-2.50
2022-12-14T07:51:32.671Z,-2.51
2022-12-14T07:54:03.482Z,-2.46
2022-12-14T07:56:35.414Z,-2.39
2022-12-14T07:59:07.791Z,-2.30
2022-12-14T08:01:37.155Z,-2.15
2022-12-14T08:04:11.527Z,-2.08
2022-12-14T08:06:40.677Z,-2.08
2022-12-14T08:09:10.930Z,-2.01
2022-12-14T08:11:39.578Z,-1.95
2022-12-14T08:14:11.937Z,-1.89
2022-12-14T08:16:39.717Z,-1.80
2022-12-14T08:19:07.573Z,-1.71
2022-12-14T08:21:35.426Z,-1.58
2022-12-14T08:24:04.323Z,-1.58
2022-12-14T08:26:35.805Z,-1.53
2022-12-14T08:29:02.053Z,-1.38
2022-12-14T08:31:30.678Z,-1.38
2022-12-14T08:34:00.193Z,-1.35
2022-12-14T08:36:32.147Z,-1.41
2022-12-14T08:39:04.306Z,-1.38
2022-12-14T08:41:32.451Z,-1.36
2022-12-14T08:44:02.347Z,-1.33
2022-12-14T08:46:33.097Z,-1.26
2022-12-14T08:49:01.366Z,-1.20
2022-12-14T08:51:29.617Z,-1.11
2022-12-14T08:53:57.967Z,-0.97
2022-12-14T08:56:28.072Z,-0.83
2022-12-14T08:58:56.970Z,-0.71
2022-12-14T09:01:33.557Z,-0.59
2022-12-14T09:04:08.523Z,-0.47
2022-12-14T09:06:38.887Z,-0.43
2022-12-14T09:09:15.241Z,-0.35
2022-12-14T09:11:37.776Z,-0.28
2022-12-14T09:14:05.401Z,-0.19
2022-12-14T09:16:33.480Z,-0.04
2022-12-14T09:19:01.123Z,0.12
2022-12-14T09:21:28.858Z,0.24
2022-12-14T09:23:59.651Z,0.35
2022-12-14T09:26:26.265Z,0.42
2022-12-14T09:28:56.944Z,0.53
2022-12-14T09:31:27.174Z,0.51
2022-12-14T09:33:55.597Z,0.48
2022-12-14T09:36:28.793Z,0.46
2022-12-14T09:38:57.127Z,0.47
2022-12-14T09:41:42.347Z,0.49
2022-12-14T09:44:47.693Z,0.49
2022-12-14T09:47:36.094Z,0.49
2022-12-14T09:50:08.959Z,0.50
2022-12-14T09:52:46.824Z,0.52
2022-12-14T09:55:40.588Z,0.55
2022-12-14T09:58:25.153Z,0.59
2022-12-14T10:01:22.468Z,0.65
2022-12-14T10:04:01.214Z,0.74
2022-12-14T10:06:57.567Z,0.83
2022-12-14T10:10:03.288Z,0.90
2022-12-14T10:12:56.910Z,0.99
2022-12-14T10:16:05.857Z,1.05
2022-12-14T10:18:59.898Z,1.12
2022-12-14T10:21:36.427Z,1.21
2022-12-14T10:24:06.307Z,1.25
2022-12-14T10:26:42.229Z,1.31
2022-12-14T10:29:32.881Z,1.34
2022-12-14T10:32:08.930Z,1.37
2022-12-14T10:34:40.192Z,1.43
2022-12-14T10:37:16.341Z,1.47
2022-12-14T10:40:17.435Z,1.47
2022-12-14T10:43:23.269Z,1.45
2022-12-14T10:46:01.248Z,1.53
2022-12-14T10:48:40.660Z,1.58
2022-12-14T10:51:19.803Z,1.60
2022-12-14T10:54:04.479Z,1.70
2022-12-14T10:56:34.850Z,1.74
2022-12-14T10:59:23.474Z,1.79
2022-12-14T11:02:25.424Z,1.88
2022-12-14T11:05:03.575Z,2.02
2022-12-14T11:07:39.058Z,2.14
2022-12-14T11:10:30.238Z,2.22
2022-12-14T11:13:20.461Z,2.27
2022-12-14T11:15:53.654Z,2.30
2022-12-14T11:18:31.161Z,2.29
2022-12-14T11:21:03.364Z,2.29
2022-12-14T11:23:42.213Z,2.27
2022-12-14T11:26:14.968Z,2.31
2022-12-14T11:28:52.422Z,2.36
2022-12-14T11:31:39.201Z,2.45
2022-12-14T11:34:22.261Z,2.46
2022-12-14T11:36:50.211Z,2.49
2022-12-14T11:39:25.118Z,2.52
2022-12-14T11:42:02.651Z,2.54
2022-12-14T11:44:36.198Z,2.52
2022-12-14T11:47:15.915Z,2.52
2022-12-14T11:49:48.992Z,2.52
2022-12-14T11:52:42.753Z,2.52
2022-12-14T11:55:26.707Z,2.53
2022-12-14T11:57:58.445Z,2.52
2022-12-14T12:00:46.969Z,2.48
2022-12-14T12:03:21.105Z,2.45
2022-12-14T12:05:50.621Z,2.45
2022-12-14T12:08:28.589Z,2.45
2022-12-14T12:11:02.140Z,2.45
2022-12-14T12:13:38.928Z,2.52
2022-12-14T12:16:17.152Z,2.54
2022-12-14T12:19:12.361Z,2.56
2022-12-14T12:21:45.043Z,2.58
2022-12-14T12:24:30.420Z,2.55
2022-12-14T12:27:02.398Z,2.55
2022-12-14T12:29:37.101Z,2.54
2022-12-14T12:32:19.524Z,2.53
2022-12-14T12:35:12.314Z,2.54
2022-12-14T12:38:06.854Z,2.56
2022-12-14T12:41:01.913Z,2.57
2022-12-14T12:43:43.501Z,2.60
2022-12-14T12:46:17.301Z,2.63
2022-12-14T12:49:08.143Z,2.67
2022-12-14T12:51:56.043Z,2.69
2022-12-14T12:54:52.585Z,2.67
2022-12-14T12:57:21.392Z,2.66
2022-12-14T12:59:53.295Z,2.64
2022-12-14T13:02:38.036Z,2.61
2022-12-14T13:05:44.367Z,2.60
2022-12-14T13:07:52.600Z,2.59
2022-12-14T13:10:28.000Z,2.57
2022-12-14T13:13:09.919Z,2.55
2022-12-14T13:15:49.076Z,2.54
2022-12-14T13:18:59.538Z,2.56
2022-12-14T13:21:31.920Z,2.58
2022-12-14T13:23:59.649Z,2.56
2022-12-14T13:29:16.716Z,2.52
2022-12-14T13:32:24.875Z,2.50
2022-12-14T13:35:32.477Z,2.47
2022-12-14T13:38:33.960Z,2.40
2022-12-14T13:41:36.006Z,2.32
2022-12-14T13:44:35.766Z,2.25
2022-12-14T13:47:06.432Z,2.18
2022-12-14T13:49:35.718Z,2.14
2022-12-14T13:52:03.582Z,2.09
2022-12-14T13:54:37.800Z,2.05
2022-12-14T13:57:15.780Z,1.99
2022-12-14T13:59:51.667Z,1.94
2022-12-14T14:02:34.457Z,1.89
2022-12-14T14:05:20.998Z,1.83
2022-12-14T14:08:33.267Z,1.80
2022-12-14T14:11:13.954Z,1.76
2022-12-14T14:13:32.342Z,1.72
2022-12-14T14:16:27.858Z,1.71
2022-12-14T14:18:54.031Z,1.69
2022-12-14T14:21:29.574Z,1.67
2022-12-14T14:24:17.247Z,1.67
2022-12-14T14:27:11.268Z,1.61
2022-12-14T14:29:50.386Z,1.62
2022-12-14T14:32:39.292Z,1.59
2022-12-14T14:35:24.409Z,1.61
2022-12-14T14:38:01.921Z,1.61
2022-12-14T14:41:06.713Z,1.63
2022-12-14T14:43:07.389Z,1.64
2022-12-14T14:45:48.954Z,1.67
2022-12-14T14:48:36.897Z,1.66
2022-12-14T14:51:24.690Z,1.66
2022-12-14T14:54:56.142Z,1.65
2022-12-14T14:56:53.038Z,1.66
2022-12-14T14:59:31.589Z,1.66
2022-12-14T15:02:03.582Z,1.67
2022-12-14T15:04:47.544Z,1.67
2022-12-14T15:07:23.351Z,1.66
2022-12-14T15:10:27.781Z,1.67
2022-12-14T15:12:58.774Z,1.67
2022-12-14T15:15:40.632Z,1.67
2022-12-14T15:18:28.285Z,1.69
2022-12-14T15:21:09.703Z,1.71
2022-12-14T15:23:52.760Z,1.73
2022-12-14T15:26:27.943Z,1.77
2022-12-14T15:28:59.960Z,1.77
2022-12-14T15:31:32.459Z,1.77
2022-12-14T15:34:01.570Z,1.77
2022-12-14T15:36:37.456Z,1.78
2022-12-14T15:39:05.778Z,1.77
2022-12-14T15:41:33.722Z,1.78
2022-12-14T15:44:01.657Z,1.76
2022-12-14T15:46:35.266Z,1.77
2022-12-14T15:49:07.349Z,1.76
2022-12-14T15:51:44.146Z,1.78
2022-12-14T15:54:18.859Z,1.78
2022-12-14T15:56:58.101Z,1.78
2022-12-14T15:59:31.857Z,1.78
2022-12-14T16:02:17.144Z,1.80
2022-12-14T16:04:46.043Z,1.80
2022-12-14T16:07:24.338Z,1.79
2022-12-14T16:09:58.935Z,1.80
2022-12-14T16:12:48.766Z,1.79
2022-12-14T16:15:20.265Z,1.78
2022-12-14T16:17:50.197Z,1.77
2022-12-14T16:20:29.195Z,1.79
2022-12-14T16:23:20.518Z,1.79
2022-12-14T16:25:59.625Z,1.82
2022-12-14T16:28:32.249Z,1.82
2022-12-14T16:31:07.561Z,1.81
2022-12-14T16:33:39.332Z,1.80
2022-12-14T16:36:16.889Z,1.81
2022-12-14T16:39:07.448Z,1.80
2022-12-14T16:41:57.979Z,1.76
2022-12-14T16:44:37.804Z,1.72
2022-12-14T16:47:17.086Z,1.69
2022-12-14T16:49:59.342Z,1.66
2022-12-14T16:52:32.670Z,1.66
2022-12-14T16:55:14.220Z,1.64
2022-12-14T16:57:55.257Z,1.66
2022-12-14T17:00:29.853Z,1.64
2022-12-14T17:03:22.498Z,1.64
2022-12-14T17:05:54.632Z,1.62
2022-12-14T17:08:22.319Z,1.67
2022-12-14T17:10:50.407Z,1.68
2022-12-14T17:13:18.026Z,1.67
2022-12-14T17:16:05.490Z,1.69
2022-12-14T17:18:39.415Z,1.70
2022-12-14T17:21:11.572Z,1.72
2022-12-14T17:23:42.257Z,1.72
2022-12-14T17:26:21.207Z,1.71
2022-12-14T17:28:49.798Z,1.69
2022-12-14T17:31:21.967Z,1.71
2022-12-14T17:33:53.339Z,1.73
2022-12-14T17:36:20.834Z,1.75
2022-12-14T17:38:48.427Z,1.76
2022-12-14T17:41:26.806Z,1.80
2022-12-14T17:43:57.235Z,1.80
2022-12-14T17:46:25.767Z,1.80
2022-12-14T17:48:53.519Z,1.82
2022-12-14T17:51:28.702Z,1.83
2022-12-14T17:53:58.058Z,1.85
2022-12-14T17:56:25.497Z,1.89
2022-12-14T17:58:53.706Z,1.92
2022-12-14T18:01:23.949Z,1.96
2022-12-14T18:03:53.899Z,2.02
2022-12-14T18:06:21.825Z,2.06
2022-12-14T18:08:49.593Z,2.09
2022-12-14T18:11:23.026Z,2.12
2022-12-14T18:13:50.402Z,2.12
2022-12-14T18:16:20.741Z,2.14
2022-12-14T18:18:49.219Z,2.18
2022-12-14T18:21:27.577Z,2.22
2022-12-14T18:23:56.341Z,2.25
2022-12-14T18:26:23.900Z,2.26
2022-12-14T18:28:53.966Z,2.24
2022-12-14T18:31:35.611Z,2.22
2022-12-14T18:34:04.408Z,2.22
2022-12-14T18:36:32.254Z,2.21
2022-12-14T18:39:00.690Z,2.18
2022-12-14T18:41:29.261Z,2.18
2022-12-14T18:43:57.119Z,2.17
2022-12-14T18:46:24.704Z,2.14
2022-12-14T18:48:53.124Z,2.11
2022-12-14T18:51:23.448Z,2.09
2022-12-14T18:53:54.780Z,2.07
2022-12-14T18:56:24.764Z,2.08
2022-12-14T18:58:52.322Z,2.06
2022-12-14T19:01:24.170Z,2.07
2022-12-14T19:03:52.167Z,2.08
2022-12-14T19:06:44.900Z,2.11
2022-12-14T19:08:57.072Z,2.15
2022-12-14T19:11:34.966Z,2.19
2022-12-14T19:14:02.509Z,2.21
2022-12-14T19:16:29.886Z,2.25
2022-12-14T19:18:57.859Z,2.25
2022-12-14T19:21:26.185Z,2.24
2022-12-14T19:23:55.166Z,2.22
2022-12-14T19:26:23.356Z,2.23
2022-12-14T19:28:50.751Z,2.22
2022-12-14T19:31:18.266Z,2.20
2022-12-14T19:33:46.244Z,2.20
2022-12-14T19:36:13.890Z,2.19
2022-12-14T19:38:41.285Z,2.20
2022-12-14T19:41:12.934Z,2.21
2022-12-14T19:43:40.861Z,2.22
2022-12-14T19:46:11.115Z,2.23
2022-12-14T19:48:39.983Z,2.24
2022-12-14T19:51:10.755Z,2.26
2022-12-14T19:53:43.772Z,2.25
2022-12-14T19:56:14.228Z,2.25
2022-12-14T19:58:41.723Z,2.27
2022-12-14T20:01:12.367Z,2.30
2022-12-14T20:03:41.185Z,2.30
2022-12-14T20:06:09.006Z,2.25
2022-12-14T20:08:37.294Z,2.22
2022-12-14T20:11:08.696Z,2.21
2022-12-14T20:13:37.090Z,2.21
2022-12-14T20:16:05.952Z,2.20
2022-12-14T20:18:33.523Z,2.19
2022-12-14T20:21:03.601Z,2.22
2022-12-14T20:23:34.807Z,2.21
2022-12-14T20:26:06.565Z,2.22
2022-12-14T20:28:34.315Z,2.23
2022-12-14T20:31:08.035Z,2.24
2022-12-14T20:33:37.208Z,2.24
2022-12-14T20:36:08.453Z,2.26
2022-12-14T20:38:36.396Z,2.29
2022-12-14T20:41:07.880Z,2.29
2022-12-14T20:43:37.602Z,2.32
2022-12-14T20:46:05.628Z,2.34
2022-12-14T20:48:33.341Z,2.32
2022-12-14T20:51:02.749Z,2.34
2022-12-14T20:53:30.949Z,2.38
2022-12-14T20:56:03.748Z,2.40
2022-12-14T20:58:31.668Z,2.42
2022-12-14T21:01:08.292Z,2.43
2022-12-14T21:03:36.878Z,2.43
2022-12-14T21:06:06.077Z,2.44
2022-12-14T21:08:38.826Z,2.45
2022-12-14T21:11:25.094Z,2.49
2022-12-14T21:13:53.773Z,2.52
2022-12-14T21:16:21.639Z,2.53
2022-12-14T21:18:49.650Z,2.57
2022-12-14T21:21:17.262Z,2.58
2022-12-14T21:23:44.765Z,2.59
2022-12-14T21:26:12.680Z,2.61
2022-12-14T21:28:40.265Z,2.63
2022-12-14T21:31:10.919Z,2.63
2022-12-14T21:33:38.483Z,2.62
2022-12-14T21:36:08.114Z,2.63
2022-12-14T21:38:36.465Z,2.62
2022-12-14T21:41:23.739Z,2.64
2022-12-14T21:43:52.763Z,2.66
2022-12-14T21:46:20.645Z,2.71
2022-12-14T21:48:48.700Z,2.71
2022-12-14T21:51:18.346Z,2.72
2022-12-14T21:53:58.537Z,2.72
2022-12-14T21:56:56.887Z,2.71
2022-12-14T21:59:35.855Z,2.65
2022-12-14T22:02:08.671Z,2.65
2022-12-14T22:04:39.786Z,2.62
2022-12-14T22:07:05.690Z,2.63
2022-12-14T22:09:33.116Z,2.62
2022-12-14T22:12:00.315Z,2.64
2022-12-14T22:14:27.986Z,2.65
2022-12-14T22:16:55.449Z,2.65
2022-12-14T22:19:24.956Z,2.63
2022-12-14T22:21:55.620Z,2.66
2022-12-14T22:24:23.885Z,2.64
2022-12-14T22:26:52.211Z,2.64
2022-12-14T22:29:21.646Z,2.65
2022-12-14T22:31:50.833Z,2.68
2022-12-14T22:34:22.380Z,2.68
2022-12-14T22:36:52.556Z,2.71
2022-12-14T22:39:20.302Z,2.75
2022-12-14T22:41:49.199Z,2.76
2022-12-14T22:44:16.612Z,2.75
2022-12-14T22:46:44.148Z,2.77
2022-12-14T22:49:16.349Z,2.77
2022-12-14T22:51:44.896Z,2.76
2022-12-14T22:54:23.658Z,2.77
2022-12-14T22:57:02.533Z,2.78
2022-12-14T22:59:38.473Z,2.76
2022-12-14T23:02:06.419Z,2.76
2022-12-14T23:04:37.110Z,2.73
2022-12-14T23:07:04.960Z,2.74
2022-12-14T23:09:50.669Z,2.75
2022-12-14T23:12:37.073Z,2.75
2022-12-14T23:15:24.736Z,2.75
2022-12-14T23:18:14.874Z,2.73
2022-12-14T23:21:00.826Z,2.73
2022-12-14T23:23:46.612Z,2.76
2022-12-14T23:26:32.919Z,2.79
2022-12-14T23:29:19.234Z,2.79
2022-12-14T23:32:05.155Z,2.80
2022-12-14T23:34:50.900Z,2.82
2022-12-14T23:37:36.650Z,2.84
2022-12-14T23:40:24.597Z,2.86
2022-12-14T23:43:10.787Z,2.86
2022-12-14T23:45:57.229Z,2.88
2022-12-14T23:48:43.048Z,2.89
2022-12-14T23:51:28.955Z,2.89
2022-12-14T23:54:14.548Z,2.91
2022-12-14T23:57:02.373Z,2.95
2022-12-14T23:59:49.605Z,2.92
